createdAt,value
2022-12-18T00:01:21.932Z,72.67
2022-12-18T00:03:48.675Z,70.19
2022-12-18T00:06:16.400Z,70.62
2022-12-18T00:08:43.482Z,70.62
2022-12-18T00:11:14.660Z,71.92
2022-12-18T00:13:42.116Z,71.50
2022-12-18T00:16:11.921Z,72.65
2022-12-18T00:18:40.504Z,72.73
2022-12-18T00:21:09.897Z,72.08
2022-12-18T00:23:37.766Z,72.97
2022-12-18T00:26:07.045Z,73.97
2022-12-18T00:28:34.271Z,73.91
2022-12-18T00:31:09.631Z,74.68
2022-12-18T00:33:37.305Z,74.98
2022-12-18T00:36:15.842Z,74.33
2022-12-18T00:38:42.935Z,74.84
2022-12-18T00:41:11.384Z,75.50
2022-12-18T00:43:39.058Z,76.68
2022-12-18T00:46:06.729Z,76.97
2022-12-18T00:48:33.712Z,76.60
2022-12-18T00:51:00.285Z,76.65
2022-12-18T00:53:26.794Z,76.79
2022-12-18T00:55:53.300Z,76.16
2022-12-18T00:58:19.975Z,77.23
2022-12-18T01:00:46.651Z,78.04
2022-12-18T01:03:16.195Z,78.04
2022-12-18T01:05:43.283Z,77.79
2022-12-18T01:08:10.105Z,76.92
2022-12-18T01:10:36.716Z,78.43
2022-12-18T01:13:03.279Z,77.56
2022-12-18T01:15:29.892Z,78.14
2022-12-18T01:17:56.536Z,78.03
2022-12-18T01:20:23.097Z,77.77
2022-12-18T01:22:49.594Z,78.06
2022-12-18T01:25:16.163Z,78.77
2022-12-18T01:27:42.698Z,78.18
2022-12-18T01:30:09.670Z,78.88
2022-12-18T01:32:36.234Z,77.53
2022-12-18T01:35:02.959Z,79.91
2022-12-18T01:37:29.460Z,78.81
2022-12-18T01:39:56.552Z,79.94
2022-12-18T01:42:23.144Z,79.40
2022-12-18T01:45:06.640Z,79.68
2022-12-18T01:47:39.085Z,79.58
2022-12-18T01:50:16.078Z,80.04
2022-12-18T01:52:46.103Z,80.09
2022-12-18T01:55:15.004Z,79.40
2022-12-18T01:57:42.752Z,79.82
2022-12-18T02:00:20.973Z,80.04
2022-12-18T02:02:48.457Z,80.50
2022-12-18T02:05:19.808Z,80.56
2022-12-18T02:08:11.493Z,79.76
2022-12-18T02:10:46.970Z,79.98
2022-12-18T02:13:29.603Z,80.32
2022-12-18T02:16:18.160Z,80.32
2022-12-18T02:18:51.236Z,79.99
2022-12-18T02:21:35.094Z,79.84
2022-12-18T02:24:13.528Z,79.27
2022-12-18T02:26:48.713Z,79.96
2022-12-18T02:29:19.657Z,79.66
2022-12-18T02:31:52.908Z,79.66
2022-12-18T02:34:23.719Z,79.58
2022-12-18T02:36:52.543Z,79.84
2022-12-18T02:39:22.854Z,79.83
2022-12-18T02:41:49.810Z,80.03
2022-12-18T02:44:16.466Z,80.38
2022-12-18T02:46:49.784Z,80.95
2022-12-18T02:49:18.898Z,81.39
2022-12-18T02:51:54.036Z,80.38
2022-12-18T02:54:29.428Z,80.61
2022-12-18T02:56:58.991Z,80.91
2022-12-18T02:59:54.859Z,80.16
2022-12-18T03:03:04.133Z,80.50
2022-12-18T03:05:42.877Z,81.76
2022-12-18T03:08:28.447Z,81.20
2022-12-18T03:10:54.907Z,81.53
2022-12-18T03:13:28.034Z,81.36
2022-12-18T03:15:57.905Z,82.41
2022-12-18T03:18:50.160Z,81.70
2022-12-18T03:21:20.996Z,81.90
2022-12-18T03:23:50.651Z,80.90
2022-12-18T03:26:20.907Z,81.45
2022-12-18T03:28:53.868Z,81.00
2022-12-18T03:31:24.148Z,81.46
2022-12-18T03:33:56.416Z,81.51
2022-12-18T03:36:23.823Z,80.80
2022-12-18T03:38:51.121Z,81.82
2022-12-18T03:41:32.090Z,81.92
2022-12-18T03:44:20.217Z,82.20
2022-12-18T03:46:55.589Z,80.70
2022-12-18T03:49:42.372Z,80.54
2022-12-18T03:52:17.673Z,80.40
2022-12-18T03:54:46.514Z,81.04
2022-12-18T03:57:18.277Z,81.77
2022-12-18T03:59:46.254Z,82.37
2022-12-18T04:02:13.559Z,82.38
2022-12-18T04:04:42.039Z,83.43
2022-12-18T04:07:08.865Z,83.69
2022-12-18T04:09:39.868Z,82.93
2022-12-18T04:12:09.251Z,82.73
2022-12-18T04:14:36.630Z,83.01
2022-12-18T04:17:04.110Z,82.77
2022-12-18T04:19:30.773Z,82.59
2022-12-18T04:21:57.317Z,83.19
2022-12-18T04:24:23.863Z,83.39
2022-12-18T04:26:50.398Z,83.91
2022-12-18T04:29:17.075Z,83.81
2022-12-18T04:31:43.664Z,84.16
2022-12-18T04:34:10.161Z,83.91
2022-12-18T04:36:36.656Z,83.86
2022-12-18T04:39:03.202Z,84.09
2022-12-18T04:41:29.728Z,82.82
2022-12-18T04:43:56.279Z,83.31
2022-12-18T04:46:22.943Z,83.57
2022-12-18T04:48:49.536Z,84.79
2022-12-18T04:51:16.087Z,83.88
2022-12-18T04:53:43.022Z,83.66
2022-12-18T04:56:12.328Z,84.66
2022-12-18T04:58:40.598Z,84.45
2022-12-18T05:01:08.586Z,84.31
2022-12-18T05:03:37.087Z,84.23
2022-12-18T05:06:05.352Z,84.38
2022-12-18T05:08:32.370Z,83.83
2022-12-18T05:11:03.920Z,83.87
2022-12-18T05:13:30.745Z,82.71
2022-12-18T05:15:57.418Z,84.11
2022-12-18T05:18:25.234Z,83.96
2022-12-18T05:20:52.725Z,85.14
2022-12-18T05:23:19.753Z,85.23
2022-12-18T05:25:54.769Z,84.82
2022-12-18T05:28:21.913Z,82.32
2022-12-18T05:30:52.689Z,83.02
2022-12-18T05:33:20.512Z,83.45
2022-12-18T05:35:52.663Z,83.54
2022-12-18T05:38:20.407Z,83.24
2022-12-18T05:40:48.645Z,83.01
2022-12-18T05:43:20.903Z,84.16
2022-12-18T05:45:48.850Z,84.26
2022-12-18T05:48:16.112Z,83.45
2022-12-18T05:50:46.460Z,84.57
2022-12-18T05:53:15.325Z,85.03
2022-12-18T05:55:42.971Z,85.52
2022-12-18T05:58:10.820Z,85.45
2022-12-18T06:00:42.598Z,84.74
2022-12-18T06:03:11.000Z,84.97
2022-12-18T06:05:42.832Z,83.91
2022-12-18T06:08:09.941Z,83.49
2022-12-18T06:10:36.748Z,83.82
2022-12-18T06:13:03.660Z,84.59
2022-12-18T06:15:30.145Z,84.45
2022-12-18T06:17:56.652Z,84.17
2022-12-18T06:20:23.616Z,84.31
2022-12-18T06:22:50.597Z,83.92
2022-12-18T06:25:17.232Z,81.07
2022-12-18T06:27:44.132Z,81.77
2022-12-18T06:30:11.600Z,83.38
2022-12-18T06:32:38.396Z,84.34
2022-12-18T06:35:05.366Z,84.93
2022-12-18T06:37:32.522Z,84.53
2022-12-18T06:39:59.153Z,83.99
2022-12-18T06:42:26.026Z,84.49
2022-12-18T06:44:52.733Z,84.61
2022-12-18T06:47:19.849Z,82.90
2022-12-18T06:49:46.413Z,83.99
2022-12-18T06:52:12.959Z,84.28
2022-12-18T06:54:39.502Z,84.99
2022-12-18T06:57:06.028Z,83.51
2022-12-18T06:59:32.669Z,84.96
2022-12-18T07:01:59.364Z,84.21
2022-12-18T07:04:31.315Z,83.48
2022-12-18T07:06:58.542Z,84.95
2022-12-18T07:09:25.439Z,84.01
2022-12-18T07:11:52.744Z,84.17
2022-12-18T07:14:19.282Z,83.94
2022-12-18T07:16:45.831Z,83.80
2022-12-18T07:19:12.472Z,84.01
2022-12-18T07:21:39.026Z,83.56
2022-12-18T07:24:06.192Z,83.05
2022-12-18T07:26:32.791Z,82.98
2022-12-18T07:28:59.644Z,82.58
2022-12-18T07:31:27.337Z,82.25
2022-12-18T07:33:54.281Z,81.74
2022-12-18T07:36:21.260Z,82.05
2022-12-18T07:38:49.098Z,82.40
2022-12-18T07:41:16.082Z,82.05
2022-12-18T07:43:43.373Z,81.85
2022-12-18T07:46:11.825Z,81.79
2022-12-18T07:48:40.662Z,81.34
2022-12-18T07:51:08.064Z,81.07
2022-12-18T07:53:36.811Z,81.77
2022-12-18T07:58:54.864Z,80.83
2022-12-18T08:01:21.687Z,80.25
2022-12-18T08:03:48.351Z,80.27
2022-12-18T08:06:16.026Z,80.36
2022-12-18T08:08:43.287Z,81.13
2022-12-18T08:11:09.872Z,78.10
2022-12-18T08:13:36.690Z,77.73
2022-12-18T08:16:07.074Z,79.40
2022-12-18T08:18:35.358Z,78.48
2022-12-18T08:21:13.424Z,78.11
2022-12-18T08:23:43.040Z,78.23
2022-12-18T08:26:11.485Z,80.12
2022-12-18T08:28:38.493Z,79.46
2022-12-18T08:31:05.515Z,78.63
2022-12-18T08:33:33.000Z,78.28
2022-12-18T08:36:00.632Z,76.75
2022-12-18T08:38:27.367Z,77.51
2022-12-18T08:41:02.230Z,78.31
2022-12-18T08:44:01.478Z,78.55
2022-12-18T08:46:35.005Z,78.61
2022-12-18T08:49:01.938Z,77.04
2022-12-18T08:51:29.496Z,78.72
2022-12-18T08:53:56.063Z,78.00
2022-12-18T08:56:22.772Z,76.92
2022-12-18T08:58:53.255Z,76.47
2022-12-18T09:01:20.476Z,75.01
2022-12-18T09:03:48.489Z,74.29
2022-12-18T09:06:16.898Z,76.47
2022-12-18T09:08:46.979Z,76.69
2022-12-18T09:11:16.558Z,76.70
2022-12-18T09:13:43.331Z,74.61
2022-12-18T09:16:10.699Z,75.29
2022-12-18T09:18:37.417Z,76.71
2022-12-18T09:21:16.020Z,76.08
2022-12-18T09:23:42.692Z,75.47
2022-12-18T09:26:09.232Z,75.21
2022-12-18T09:28:36.220Z,77.48
2022-12-18T09:31:10.517Z,74.49
2022-12-18T09:33:37.588Z,75.79
2022-12-18T09:36:07.662Z,74.30
2022-12-18T09:38:35.712Z,73.85
2022-12-18T09:41:36.465Z,73.27
2022-12-18T09:44:29.313Z,73.13
2022-12-18T09:47:06.047Z,75.00
2022-12-18T09:49:37.578Z,76.31
2022-12-18T09:52:12.622Z,77.63
2022-12-18T09:54:43.027Z,78.54
2022-12-18T09:57:19.505Z,77.97
2022-12-18T09:59:52.864Z,75.94
2022-12-18T10:02:22.683Z,77.39
2022-12-18T10:05:13.730Z,77.70
2022-12-18T10:07:59.079Z,76.47
2022-12-18T10:10:41.118Z,75.99
2022-12-18T10:13:18.200Z,77.11
2022-12-18T10:16:11.906Z,75.47
2022-12-18T10:18:51.143Z,75.29
2022-12-18T10:21:22.835Z,74.23
2022-12-18T10:24:09.635Z,75.25
2022-12-18T10:26:36.550Z,75.62
2022-12-18T10:29:11.882Z,74.45
2022-12-18T10:31:38.637Z,73.73
2022-12-18T10:34:05.298Z,73.63
2022-12-18T10:36:31.934Z,73.81
2022-12-18T10:39:17.258Z,74.72
2022-12-18T10:41:43.927Z,74.92
2022-12-18T10:44:18.742Z,75.58
2022-12-18T10:46:49.236Z,75.04
2022-12-18T10:49:35.780Z,76.58
2022-12-18T10:52:17.055Z,76.67
2022-12-18T10:54:53.113Z,76.34
2022-12-18T10:57:33.128Z,76.82
2022-12-18T11:00:14.373Z,77.43
2022-12-18T11:02:41.460Z,76.85
2022-12-18T11:05:37.848Z,77.45
2022-12-18T11:08:04.768Z,77.22
2022-12-18T11:10:37.880Z,78.03
2022-12-18T11:13:11.970Z,76.31
2022-12-18T11:15:41.691Z,76.34
2022-12-18T11:18:37.313Z,76.74
2022-12-18T11:21:06.814Z,75.75
2022-12-18T11:23:34.599Z,75.77
2022-12-18T11:26:04.095Z,75.62
2022-12-18T11:28:37.160Z,74.74
2022-12-18T11:31:18.023Z,74.63
2022-12-18T11:34:30.144Z,74.28
2022-12-18T11:37:00.649Z,74.01
2022-12-18T11:39:41.409Z,74.11
2022-12-18T11:42:21.503Z,73.85
2022-12-18T11:44:55.281Z,73.47
2022-12-18T11:47:22.089Z,73.84
2022-12-18T11:49:52.911Z,73.81
2022-12-18T11:52:22.254Z,74.03
2022-12-18T11:54:54.006Z,74.14
2022-12-18T11:57:37.072Z,73.58
2022-12-18T12:00:22.282Z,74.04
2022-12-18T12:03:22.332Z,74.54
2022-12-18T12:06:05.728Z,73.55
2022-12-18T12:08:41.297Z,74.47
2022-12-18T12:11:19.049Z,74.15
2022-12-18T12:14:16.724Z,74.79
2022-12-18T12:17:15.695Z,74.41
2022-12-18T12:20:06.372Z,74.78
2022-12-18T12:22:50.522Z,75.32
2022-12-18T12:25:22.716Z,74.93
2022-12-18T12:28:04.519Z,75.49
2022-12-18T12:30:49.820Z,75.49
2022-12-18T12:33:49.240Z,75.87
2022-12-18T12:36:27.739Z,75.89
2022-12-18T12:38:58.752Z,76.57
2022-12-18T12:41:50.013Z,77.64
2022-12-18T12:44:23.337Z,78.28
2022-12-18T12:46:53.196Z,78.90
2022-12-18T12:49:22.943Z,81.54
2022-12-18T12:52:07.313Z,80.95
2022-12-18T12:54:36.210Z,81.53
2022-12-18T12:57:11.955Z,81.40
2022-12-18T13:00:07.432Z,80.97
2022-12-18T13:03:28.133Z,81.46
2022-12-18T13:06:01.594Z,81.76
2022-12-18T13:08:33.269Z,81.02
2022-12-18T13:11:20.063Z,81.88
2022-12-18T13:13:51.973Z,81.80
2022-12-18T13:16:24.789Z,81.06
2022-12-18T13:18:55.277Z,81.70
2022-12-18T13:21:28.022Z,81.14
2022-12-18T13:23:56.653Z,81.64
2022-12-18T13:26:29.073Z,81.96
2022-12-18T13:28:58.453Z,81.47
2022-12-18T13:31:31.940Z,81.05
2022-12-18T13:34:30.790Z,81.15
2022-12-18T13:37:32.699Z,81.78
2022-12-18T13:39:59.412Z,81.62
2022-12-18T13:42:57.783Z,80.62
2022-12-18T13:45:40.207Z,81.55
2022-12-18T13:48:17.125Z,81.97
2022-12-18T13:50:44.276Z,82.42
2022-12-18T13:53:22.697Z,84.09
2022-12-18T13:55:50.662Z,83.92
2022-12-18T13:58:17.396Z,83.99
2022-12-18T14:00:45.560Z,84.49
2022-12-18T14:03:22.549Z,84.80
2022-12-18T14:06:05.669Z,83.88
2022-12-18T14:08:42.253Z,83.86
2022-12-18T14:11:20.976Z,83.54
2022-12-18T14:13:48.373Z,84.22
2022-12-18T14:16:17.739Z,84.11
2022-12-18T14:18:53.567Z,84.12
2022-12-18T14:21:24.410Z,84.44
2022-12-18T14:24:09.465Z,83.73
2022-12-18T14:26:36.039Z,82.60
2022-12-18T14:29:22.689Z,82.70
2022-12-18T14:32:13.345Z,83.04
2022-12-18T14:34:41.731Z,83.49
2022-12-18T14:37:12.126Z,84.08
2022-12-18T14:39:38.949Z,83.80
2022-12-18T14:42:05.573Z,84.58
2022-12-18T14:44:44.177Z,84.46
2022-12-18T14:47:18.741Z,84.40
2022-12-18T14:49:45.655Z,83.76
2022-12-18T14:52:27.360Z,84.96
2022-12-18T14:54:54.196Z,84.79
2022-12-18T14:57:27.852Z,84.33
2022-12-18T14:59:54.441Z,84.76
2022-12-18T15:02:27.589Z,84.55
2022-12-18T15:05:08.465Z,85.59
2022-12-18T15:07:44.205Z,85.53
2022-12-18T15:10:15.402Z,85.80
2022-12-18T15:12:43.619Z,84.82
2022-12-18T15:15:35.256Z,86.32
2022-12-18T15:18:03.497Z,86.73
2022-12-18T15:20:39.705Z,86.14
2022-12-18T15:23:13.640Z,85.70
2022-12-18T15:25:40.212Z,86.34
2022-12-18T15:28:21.056Z,86.34
2022-12-18T15:31:17.717Z,85.42
2022-12-18T15:34:01.670Z,85.71
2022-12-18T15:36:28.200Z,84.94
2022-12-18T15:39:04.200Z,86.24
2022-12-18T15:41:37.460Z,85.89
2022-12-18T15:44:27.190Z,85.29
2022-12-18T15:46:53.701Z,85.91
2022-12-18T15:49:20.392Z,85.41
2022-12-18T15:51:52.929Z,86.29
2022-12-18T15:54:39.423Z,86.21
2022-12-18T15:57:24.233Z,85.95
2022-12-18T15:59:57.510Z,86.30
2022-12-18T16:02:25.111Z,86.19
2022-12-18T16:04:53.232Z,85.12
2022-12-18T16:07:22.902Z,85.58
2022-12-18T16:09:52.236Z,85.55
2022-12-18T16:12:25.166Z,85.38
2022-12-18T16:14:51.959Z,84.79
2022-12-18T16:17:18.619Z,84.89
2022-12-18T16:19:45.424Z,84.46
2022-12-18T16:22:27.767Z,84.00
2022-12-18T16:24:55.667Z,83.70
2022-12-18T16:27:23.256Z,84.58
2022-12-18T16:29:50.105Z,84.61
2022-12-18T16:32:19.453Z,85.24
2022-12-18T16:34:46.928Z,86.23
2022-12-18T16:37:15.889Z,86.19
2022-12-18T16:39:43.152Z,85.70
2022-12-18T16:42:17.931Z,85.83
2022-12-18T16:44:45.287Z,85.81
2022-12-18T16:47:14.893Z,86.04
2022-12-18T16:49:42.206Z,85.46
2022-12-18T16:52:08.825Z,85.04
2022-12-18T16:54:36.744Z,86.00
2022-12-18T16:57:05.334Z,84.74
2022-12-18T16:59:35.306Z,85.06
2022-12-18T17:02:06.227Z,86.19
2022-12-18T17:04:33.920Z,85.38
2022-12-18T17:07:00.504Z,85.55
2022-12-18T17:09:27.084Z,85.58
2022-12-18T17:11:54.570Z,85.50
2022-12-18T17:14:23.609Z,85.51
2022-12-18T17:17:07.460Z,85.74
2022-12-18T17:19:37.216Z,85.81
2022-12-18T17:22:04.891Z,85.76
2022-12-18T17:24:34.822Z,85.76
2022-12-18T17:27:02.860Z,85.92
2022-12-18T17:29:29.397Z,85.26
2022-12-18T17:31:55.937Z,85.74
2022-12-18T17:34:24.342Z,84.69
2022-12-18T17:36:51.050Z,84.84
2022-12-18T17:39:20.036Z,85.10
2022-12-18T17:41:47.444Z,85.00
2022-12-18T17:44:14.633Z,85.45
2022-12-18T17:46:41.925Z,85.30
2022-12-18T17:49:09.380Z,85.79
2022-12-18T17:51:35.935Z,85.92
2022-12-18T17:54:02.513Z,85.63
2022-12-18T17:56:29.091Z,85.73
2022-12-18T17:58:55.684Z,84.80
2022-12-18T18:01:25.121Z,85.04
2022-12-18T18:03:53.787Z,84.24
2022-12-18T18:06:20.736Z,83.91
2022-12-18T18:08:48.106Z,84.51
2022-12-18T18:11:37.567Z,84.39
2022-12-18T18:14:07.154Z,84.47
2022-12-18T18:16:46.002Z,84.08
2022-12-18T18:19:17.819Z,84.19
2022-12-18T18:21:46.457Z,83.80
2022-12-18T18:24:15.544Z,83.70
2022-12-18T18:26:42.117Z,83.10
2022-12-18T18:29:15.780Z,82.64
2022-12-18T18:31:42.860Z,83.98
2022-12-18T18:34:15.416Z,83.66
2022-12-18T18:36:42.141Z,84.19
2022-12-18T18:39:09.214Z,84.71
2022-12-18T18:41:36.979Z,85.15
2022-12-18T18:44:03.763Z,84.21
2022-12-18T18:46:30.353Z,85.61
2022-12-18T18:48:56.904Z,85.60
2022-12-18T18:51:23.912Z,85.25
2022-12-18T18:53:52.277Z,85.11
2022-12-18T18:56:56.576Z,85.14
2022-12-18T18:59:10.319Z,85.12
2022-12-18T19:01:37.069Z,85.00
2022-12-18T19:04:04.173Z,85.66
2022-12-18T19:06:31.271Z,85.21
2022-12-18T19:09:01.370Z,85.20
2022-12-18T19:11:46.697Z,85.55
2022-12-18T19:14:14.868Z,85.81
2022-12-18T19:16:42.770Z,84.92
2022-12-18T19:19:09.639Z,85.16
2022-12-18T19:21:38.142Z,85.82
2022-12-18T19:24:06.063Z,86.02
2022-12-18T19:26:32.645Z,86.43
2022-12-18T19:29:04.224Z,87.15
2022-12-18T19:31:35.479Z,86.96
2022-12-18T19:34:03.893Z,86.85
2022-12-18T19:36:31.283Z,87.07
2022-12-18T19:39:00.730Z,86.96
2022-12-18T19:41:31.287Z,86.46
2022-12-18T19:43:59.564Z,86.64
2022-12-18T19:46:26.170Z,87.45
2022-12-18T19:48:52.908Z,87.53
2022-12-18T19:51:26.133Z,86.56
2022-12-18T19:53:58.433Z,87.33
2022-12-18T19:56:28.676Z,87.45
2022-12-18T19:58:55.794Z,87.69
2022-12-18T20:01:24.378Z,87.06
2022-12-18T20:03:52.751Z,87.79
2022-12-18T20:06:26.765Z,87.92
2022-12-18T20:09:00.666Z,87.25
2022-12-18T20:11:29.642Z,88.32
2022-12-18T20:13:57.379Z,87.83
2022-12-18T20:16:24.031Z,88.68
2022-12-18T20:18:50.845Z,88.91
2022-12-18T20:21:18.913Z,89.06
2022-12-18T20:23:46.071Z,89.07
2022-12-18T20:26:12.963Z,88.51
2022-12-18T20:28:40.625Z,89.22
2022-12-18T20:31:10.407Z,89.47
2022-12-18T20:33:37.738Z,89.78
2022-12-18T20:36:10.530Z,89.30
2022-12-18T20:38:38.992Z,89.45
2022-12-18T20:41:16.388Z,90.59
2022-12-18T20:43:44.005Z,90.71
2022-12-18T20:46:13.124Z,90.54
2022-12-18T20:48:43.768Z,91.01
2022-12-18T20:51:16.985Z,91.16
2022-12-18T20:53:44.436Z,91.05
2022-12-18T20:56:22.780Z,90.29
2022-12-18T20:58:53.669Z,91.55
2022-12-18T21:01:22.856Z,90.02
2022-12-18T21:03:50.451Z,90.97
2022-12-18T21:06:19.218Z,90.83
2022-12-18T21:08:46.133Z,91.19
2022-12-18T21:11:40.471Z,91.89
2022-12-18T21:14:15.976Z,90.53
2022-12-18T21:16:43.958Z,90.78
2022-12-18T21:19:16.409Z,91.69
2022-12-18T21:21:43.925Z,90.70
2022-12-18T21:24:11.616Z,91.29
2022-12-18T21:26:44.914Z,91.24
2022-12-18T21:29:15.420Z,91.23
2022-12-18T21:31:42.894Z,91.50
2022-12-18T21:34:14.605Z,92.09
2022-12-18T21:36:41.158Z,92.60
2022-12-18T21:39:08.291Z,91.99
2022-12-18T21:41:53.534Z,92.67
2022-12-18T21:44:22.621Z,92.16
2022-12-18T21:46:55.830Z,92.32
2022-12-18T21:49:26.847Z,92.40
2022-12-18T21:51:56.249Z,92.32
2022-12-18T21:54:23.586Z,93.32
2022-12-18T21:56:53.962Z,92.28
2022-12-18T21:59:32.288Z,92.67
2022-12-18T22:02:01.518Z,92.24
2022-12-18T22:04:28.594Z,93.68
2022-12-18T22:06:56.231Z,93.10
2022-12-18T22:09:25.260Z,93.10
2022-12-18T22:11:52.352Z,93.34
2022-12-18T22:14:19.252Z,92.85
2022-12-18T22:16:45.953Z,93.17
2022-12-18T22:19:14.782Z,93.63
2022-12-18T22:21:45.513Z,93.17
2022-12-18T22:24:16.333Z,93.09
2022-12-18T22:26:43.132Z,92.72
2022-12-18T22:29:36.707Z,92.52
2022-12-18T22:32:05.041Z,92.81
2022-12-18T22:34:36.327Z,92.63
2022-12-18T22:37:03.456Z,92.52
2022-12-18T22:39:30.233Z,93.51
2022-12-18T22:41:58.186Z,92.57
2022-12-18T22:44:27.857Z,92.99
2022-12-18T22:47:05.965Z,93.85
2022-12-18T22:49:34.866Z,93.80
2022-12-18T22:52:02.200Z,93.16
2022-12-18T22:54:28.854Z,92.85
2022-12-18T22:56:55.548Z,93.96
2022-12-18T22:59:23.279Z,93.18
2022-12-18T23:01:52.984Z,92.95
2022-12-18T23:04:36.024Z,94.41
2022-12-18T23:07:04.406Z,93.36
2022-12-18T23:09:31.096Z,93.20
2022-12-18T23:11:57.616Z,93.66
2022-12-18T23:14:24.150Z,94.60
2022-12-18T23:16:50.799Z,93.90
2022-12-18T23:19:19.627Z,93.58
2022-12-18T23:21:46.357Z,94.13
2022-12-18T23:24:12.956Z,93.42
2022-12-18T23:26:39.503Z,94.82
2022-12-18T23:29:06.181Z,95.24
2022-12-18T23:31:38.500Z,94.49
2022-12-18T23:34:06.295Z,95.42
2022-12-18T23:36:43.523Z,95.18
2022-12-18T23:39:17.190Z,94.52
2022-12-18T23:41:55.923Z,95.18
2022-12-18T23:44:22.519Z,95.25
2022-12-18T23:46:49.129Z,94.17
2022-12-18T23:49:15.706Z,94.45
2022-12-18T23:51:42.278Z,94.07
2022-12-18T23:54:10.395Z,94.82
2022-12-18T23:56:36.923Z,94.79
2022-12-18T23:59:03.549Z,94.33
